Tiempo atmosférico en la estación meteorológica de Lanzarote Aeropuerto, Las Palmas (14 m.)



Fecha
DESCASC
Temp. máxima en grados centígrados (hora)
DESCASC
Temp. mínima en grados centígrados (hora)
DESCASC
Temp. media en grados centígrados
DESCASC
Racha de viento máxima en m/sg (hora)
DESCASC
Velocidad máxima media en intervalos de 10 minutos(hora)
DESCASC
Precipitaciones diarias en mm
DESCASC
Precipitaciones de 00:00 a 06:00 en mm
DESCASC
Precipitaciones de 06:00 a 12:00 en mm
DESCASC
Precipitaciones de 12:00 a 18:00 en mm
DESCASC
Precipitaciones de 18:00 a 24:00 en mm
DESCASC
07-01-2021 22.4 (11:20) 16.5 (00:00) 19.4 18.06 (12:10) 12.22 (12:20) 32.3 0 0 32.3 0
06-01-2021 23.6 (13:10) 15.7 (00:00) 19.7 16.39 (12:40) 11.94 (14:50) 0.9 0 0 0.9 0
08-01-2021 20.3 (00:50) 13.5 (00:00) 16.9 16.94 (02:30) 11.67 (03:20) 1.4 1 0.1 0.3 0
26-01-2021 23.6 (14:20) 15.9 (00:00) 19.8 14.44 (13:30) 11.39 (16:20) 0 0 0 0 0
10-01-2021 18.5 (15:10) 12.5 (05:50) 15.5 18.06 (14:20) 10.56 (10:00) 2.9 1.4 0.9 0.4 0.2
01-01-2021 21.3 (14:20) 14.5 (00:00) 17.9 14.44 (14:10) 10.28 (14:40) 0 0 0 0 0
16-01-2021 20.6 (13:40) 13.8 (00:00) 17.2 15 (10:00) 9.72 (10:20) 0 0 0 0 0
11-01-2021 18.7 (13:50) 11.8 (00:00) 15.3 13.89 (12:40) 9.72 (12:20) 1.1 0 1.1 0 0
31-12-2020 21.3 (13:50) 14.7 (00:00) 18 12.78 (11:30) 9.44 (16:10) 0 0 0 0 0
09-01-2021 17.4 (13:10) 11.1 (00:00) 14.3 16.94 (11:30) 8.89 (15:00) 6.8 2.7 3.8 0.1 0.2
25-01-2021 23 (13:30) 15 (00:00) 19 12.5 (12:40) 8.61 (11:40) 0 0 0 0 0
15-01-2021 20.1 (14:20) 15.1 (00:00) 17.6 12.5 (10:50) 8.61 (12:20) 0 0 0 0 0
05-01-2021 24.5 (13:30) 15.9 (00:00) 20.2 11.67 (12:30) 8.33 (12:10) 0.1 0 0.1 0 0
22-01-2021 22.3 (14:00) 15.4 (00:00) 18.8 11.39 (15:40) 8.33 (15:40) 0 0 0 0 0
04-01-2021 19 (14:30) 12.9 (00:00) 15.9 9.17 (18:40) 7.5 (19:40) 0 0 0 0 0
02-01-2021 20.9 (13:20) 14.2 (00:00) 17.5 10.83 (17:10) 7.5 (11:30) 0 0 0 0 0
24-01-2021 24.3 (12:50) 15 (00:00) 19.6 11.39 (15:20) 7.5 (15:20) 1 1 0 0 0
14-01-2021 19.8 (14:10) 12.2 (06:20) 16 10.83 (15:40) 7.22 (13:50) 0 0 0 0 0
30-12-2020 21.5 (15:50) 14.3 (00:00) 17.9 10.83 (15:20) 7.22 (17:20) 0 0 0 0 0
23-01-2021 22.4 (14:30) 14.5 (00:00) 18.4 11.39 (11:20) 6.94 (11:20) 0 0 0 0 0
28-12-2020 23.5 (13:00) 14 (00:00) 18.8 9.72 (13:10) 6.67 (13:30) 0 0 0 0 0
13-01-2021 20.5 (13:30) 11.2 (00:00) 15.8 8.89 (02:30) 6.67 (02:20) 0 0 0 0 0
20-01-2021 21.4 (17:10) 10.4 (00:00) 15.9 8.33 (15:10) 6.67 (15:10) 0 0 0 0 0
12-01-2021 19.2 (13:30) 12 (00:00) 15.6 8.89 (14:30) 6.39 (11:20) 0.3 0 0.3 0 0
03-01-2021 19.5 (11:10) 14.1 (00:00) 16.8 8.33 (10:50) 5.83 (11:50) 0 0 0 0 0
29-12-2020 21.9 (14:00) 13.2 (00:00) 17.5 8.89 (14:20) 5.83 (16:40) 0 0 0 0 0
17-01-2021 20.1 (13:20) 13.3 (00:00) 16.7 8.89 (09:50) 5.28 (13:30) 0 0 0 0 0
18-01-2021 20.3 (15:10) 11.7 (00:00) 16 6.11 (11:30) 4.44 (13:20) 0 0 0 0 0
19-01-2021 19.8 (13:20) 11.9 (00:00) 15.8 5.83 (16:30) 4.17 (01:00) 0 0 0 0 0
21-01-2021 21.5 (12:10) 14.3 (00:00) 17.9 6.11 (19:50) 3.89 (12:30) 0 0 0 0 0

Gráficas

Temp. máximas Temp. mínimas Temp. medias Precipitaciones Rachas de viento máximas Velocidades máximas media en intervalos de 10 minutos

Datos horarios

Fecha y hora oficial Temperatura (ºC) Velocidad del viento (km/h) Dirección del viento Racha (km/h) Dirección de racha Precipitación (mm) Presión (hPa) Tendencia (hPa) Humedad (%)
2021-01-26 23:00:00 17.6 22 Norte 39 Norte 0 1020.7 -- 82
2021-01-26 22:00:00 17.2 21 Nordeste 32 Nordeste 0 1020.7 -- 84
2021-01-26 21:00:00 17.6 22 Norte 45 Norte 0 1020.7 -- 85
2021-01-26 20:00:00 18.2 37 Norte 48 Norte 0 1020.2 -- 80
2021-01-26 19:00:00 18 37 Norte 50 Norte 0 1019.9 -- 84
2021-01-26 18:00:00 19.5 32 Norte 48 Norte 0 1019.6 -- 75
2021-01-26 17:00:00 21.4 35 Norte 52 Norte 0 1019.2 -- 66
2021-01-26 16:00:00 22.6 39 Norte 50 Norte 0 1019.2 -- 61
2021-01-26 15:00:00 23.4 34 Norte 46 Norte 0 1019.4 -- 58
2021-01-26 14:00:00 23.2 31 Nordeste 52 Nordeste 0 1020.2 -- 57
2021-01-26 13:00:00 22.3 34 Nordeste 50 Nordeste 0 1021 -- 61
2021-01-26 12:00:00 21.6 30 Nordeste 46 Nordeste 0 1021.9 -- 64
2021-01-26 11:00:00 20.3 29 Nordeste 50 Nordeste 0 1022.5 -- 69
2021-01-26 10:00:00 19 30 Nordeste 42 Nordeste 0 1022.3 -- 75
2021-01-26 09:00:00 18.1 27 Nordeste 42 Nordeste 0 1022.1 -- 77
2021-01-26 08:00:00 17.6 28 Nordeste 45 Nordeste 0 1021.7 -- 78
2021-01-26 07:00:00 17.4 23 Nordeste 39 Nordeste 0 1021.4 -- 79
2021-01-26 06:00:00 17 20 Norte 37 Nordeste 0 1021.1 -- 80
2021-01-26 05:00:00 17 16 Norte 33 Nordeste 0 1021 -- 78
2021-01-26 04:00:00 17.2 19 Nordeste 37 Nordeste 0 1021.2 -- 77
2021-01-26 03:00:00 17.7 20 Nordeste 33 Norte 0 1021.3 -- 75
2021-01-26 02:00:00 17.3 22 Nordeste 39 Norte 0 1021.3 -- 80
2021-01-26 01:00:00 16.4 18 Norte 35 Norte 0 1021.7 -- 83
2021-01-26 00:00:00 16 19 Norte 37 Norte 0 1022 -- 81
2021-01-25 23:00:00 17.7 27 Norte 37 Nordeste 0 1022.1 -- 74
2021-01-25 22:00:00 17.6 19 Nordeste 30 Norte 0 1022.3 -- 74
2021-01-25 21:00:00 17.9 20 Nordeste 35 Norte 0 1022.4 -- 72
2021-01-25 20:00:00 17.9 21 Norte 39 Nordeste 0 1021.9 -- 74
2021-01-25 19:00:00 18.3 24 Norte 41 Norte 0 1021.6 -- 72
2021-01-25 18:00:00 19.2 28 Norte 42 Norte 0 1021.1 -- 68
2021-01-25 17:00:00 20.1 28 Norte 41 Norte 0 1020.9 -- 65
2021-01-25 16:00:00 21.4 30 Norte 45 Norte 0 1020.5 -- 62
2021-01-25 15:00:00 22.3 29 Norte 45 Norte 0 1020.2 -- 60
2021-01-25 14:00:00 22.4 30 Norte 42 Norte 0 1020.3 -- 60
2021-01-25 13:00:00 22.2 29 Norte 45 Norte 0 1021 -- 62
2021-01-25 12:00:00 22 30 Norte 42 Norte 0 1021.8 -- 62
2021-01-25 11:00:00 20.9 28 Norte 41 Norte 0 1022 -- 67
2021-01-25 10:00:00 19.6 27 Norte 35 Norte 0 1021.7 -- 76
2021-01-25 09:00:00 17.7 14 Nordeste 24 Nordeste 0 1021 -- 87
2021-01-25 08:00:00 15.9 15 Norte 28 Norte 0 1020.4 -- 91
2021-01-25 07:00:00 15.6 18 Norte -- -- -- 1019.8 -- 93
2021-01-25 06:00:00 15.4 18 Norte 30 Norte 0 1019.3 -- 93
2021-01-25 05:00:00 15.6 16 Norte 22 Norte 0 1019.1 -- 94
2021-01-25 04:00:00 15.3 15 Norte 21 Norte 0 1019.1 -- 94
2021-01-25 03:00:00 15.6 10 Norte 26 Norte 0 1019.3 -- 93
2021-01-25 02:00:00 15.9 14 Norte 26 Norte 0 1019.7 -- 92
2021-01-25 01:00:00 16.2 19 Norte 30 Norte 0 1020 -- 92
2021-01-25 00:00:00 16.7 21 Norte 30 Norte 0 1020.3 -- 91
2021-01-24 23:00:00 16.5 16 Norte 26 Norte 0 1020.5 -- 91
2021-01-24 22:00:00 17.2 22 Norte 30 Norte 0 1020.3 -- 89
2021-01-24 21:00:00 17.2 17 Norte 22 Norte 0 1019.8 -- 85
2021-01-24 20:00:00 17.4 10 Norte 15 Norte 0 1019.4 -- 61
2021-01-24 19:00:00 19.3 10 Nordeste 32 Nordeste 0 1019.1 -- 55
2021-01-24 18:00:00 20.9 19 Nordeste 33 Nordeste 0 1018.4 -- 52
2021-01-24 17:00:00 21.4 22 Nordeste 33 Nordeste 0 1018.4 -- 51
2021-01-24 16:00:00 22.5 24 Nordeste 41 Nordeste 0 1018.6 -- 50
2021-01-24 15:00:00 23.5 24 Nordeste 37 Norte 0 1019 -- 46
2021-01-24 14:00:00 23.1 23 Nordeste 37 Nordeste 0 1019.5 -- 47
2021-01-24 13:00:00 23.3 18 Nordeste 32 Nordeste 0 1020.1 -- 54
2021-01-24 12:00:00 22.8 15 Norte 33 Este 0 1020.7 -- 62
2021-01-24 11:00:00 21.7 8 Nordeste 24 Norte 0 1021.4 -- 63
2021-01-24 10:00:00 20.1 17 Norte 26 Norte 0 1020.9 -- 73
2021-01-24 09:00:00 17.2 17 Norte 24 Norte 0 1019.9 -- 86
2021-01-24 08:00:00 15.1 13 Norte 18 Norte 0 1019.4 -- 86
2021-01-24 07:00:00 15.9 15 Norte 24 Norte 0 1019.4 -- 90
2021-01-24 06:00:00 15.7 12 Norte 21 Norte 0 1019.2 -- 90
2021-01-24 05:00:00 15.9 5 Norte 22 Norte 0 1019.1 -- 89
2021-01-24 04:00:00 16 17 Norte 28 Norte 0 1019.7 -- 89
2021-01-24 03:00:00 15.8 11 Norte 26 Norte 1 1020.2 -- 90
2021-01-24 02:00:00 15.9 10 Nordeste 24 Norte 0 1020.4 -- 88
2021-01-24 01:00:00 15.5 7 Norte 18 Nordeste 0 1020.7 -- 87
2021-01-24 00:00:00 16 11 Nordeste 22 Nordeste 0 1021.5 -- 85
2021-01-23 23:00:00 15.8 12 Norte 18 Norte 0 1021.9 -- 84
2021-01-23 22:00:00 16.1 16 Norte 24 Norte 0 1022 -- 83
2021-01-23 21:00:00 16.2 14 Norte 22 Norte 0 1021.8 -- 79
2021-01-23 20:00:00 16.9 12 Norte 28 Nordeste 0 1021.6 -- 77
2021-01-23 19:00:00 17.9 13 Nordeste 30 Nordeste 0 1021.4 -- 74
2021-01-23 18:00:00 19.4 20 Nordeste 35 Norte 0 1020.6 -- 68
2021-01-23 17:00:00 20.6 22 Nordeste 35 Nordeste 0 1020.3 -- 65
2021-01-23 16:00:00 21.3 22 Nordeste 37 Nordeste 0 1019.8 -- 61
2021-01-23 15:00:00 21.7 22 Nordeste 37 Nordeste 0 1020.5 -- 60
2021-01-23 14:00:00 21.9 21 Nordeste 39 Este 0 1021.3 -- 60
2021-01-23 13:00:00 21.2 24 Nordeste 39 Nordeste 0 1022.1 -- 63
2021-01-23 12:00:00 20.8 23 Nordeste 41 Nordeste 0 1023.1 -- 65
2021-01-23 11:00:00 20.2 24 Nordeste 37 Nordeste 0 1023.5 -- 66
2021-01-23 10:00:00 19.8 19 Nordeste 33 Norte 0 1023.2 -- 70
2021-01-23 09:00:00 16.9 7 Nordeste 21 Nordeste 0 1022.9 -- 86
2021-01-23 08:00:00 15.3 18 Nordeste 24 Norte 0 1022.3 -- 92
2021-01-23 07:00:00 14.6 12 Norte 21 Norte 0 1022 -- 91
2021-01-23 06:00:00 15.5 13 Norte 21 Nordeste 0 1021.7 -- 88
2021-01-23 05:00:00 17.3 10 Nordeste 17 Nordeste 0 1021.9 -- 84
2021-01-23 04:00:00 17.2 10 Norte 21 Norte 0 1022.4 -- 93
2021-01-23 03:00:00 17.1 13 Norte 21 Norte 0 1022.8 -- 94
2021-01-23 02:00:00 17.3 6 Nordeste 11 Nordeste 0 1023.1 -- 94
2021-01-23 01:00:00 18.1 8 Nordeste 17 Nordeste 0 1023.9 -- 89
2021-01-23 00:00:00 18.5 12 Nordeste 28 Nordeste 0 1024.4 -- 87
2021-01-22 23:00:00 18.8 12 Nordeste 21 Norte 0 1024.5 -- 83
2021-01-22 22:00:00 18.7 15 Nordeste 24 Norte 0 1024.6 -- 83
2021-01-22 21:00:00 18.8 20 Norte 30 Nordeste 0 1024.5 -- 82
2021-01-22 20:00:00 18.7 14 Norte 30 Norte 0 1024 -- 82
2021-01-22 19:00:00 18.8 21 Norte 30 Norte 0 1023.3 -- 83
2021-01-22 18:00:00 19.2 25 Norte 37 Norte 0 1023 -- 77
2021-01-22 17:00:00 20 26 Norte 41 Norte 0 1022.7 -- 76
2021-01-22 16:00:00 21.4 27 Norte 41 Norte 0 1022.3 -- 72
2021-01-22 15:00:00 21.7 26 Norte 37 Norte 0 1022.1 -- 73
2021-01-22 14:00:00 22 24 Norte 39 Norte 0 1022.9 -- 71
2021-01-22 13:00:00 21.3 21 Norte 33 Norte 0 1023.9 -- 74
2021-01-22 12:00:00 20.7 19 Norte 28 Norte 0 1024.6 -- 79
2021-01-22 11:00:00 20 18 Norte 28 Norte 0 1025.1 -- 81
2021-01-22 10:00:00 18.9 15 Norte 22 Norte 0 1024.7 -- 87
2021-01-22 09:00:00 17.6 5 Este 9 Este 0 1024.1 -- 95
2021-01-22 08:00:00 17 8 Nordeste 15 Nordeste 0 1023.6 -- 95
2021-01-22 07:00:00 17 6 Norte 15 Norte 0 1023.2 -- 97
2021-01-22 06:00:00 17.2 4 Norte 15 Norte 0 1022.9 -- 95
2021-01-22 05:00:00 17.4 6 Nordeste 17 Norte 0 1023 -- 96
2021-01-22 04:00:00 17.7 8 Noroeste 17 Norte 0 1023 -- 93
2021-01-22 03:00:00 17.2 7 Norte 15 Norte 0 1023.1 -- 94
2021-01-22 02:00:00 16 4 Noroeste 9 Norte 0 1023.8 -- 93
2021-01-22 01:00:00 15.5 10 Norte 13 Norte 0 1024.1 -- 93
2021-01-22 00:00:00 16.2 3 Norte 17 Norte 0 1024.2 -- 90
2021-01-21 23:00:00 16.7 8 Norte 9 Noroeste 0 1024.2 -- 88
2021-01-21 22:00:00 17.2 3 Norte 17 Norte 0 1023.7 -- 86
2021-01-21 21:00:00 17.7 6 Sudoeste 18 Norte 0 1023.8 -- 81
2021-01-21 20:00:00 18.3 14 Norte 22 Norte 0 1023.3 -- 81
2021-01-21 19:00:00 18.4 0 Calma 8 Sur 0 1023 -- 82
2021-01-21 18:00:00 19.7 5 Sur 11 Sudeste 0 1022.9 -- 77
2021-01-21 17:00:00 20.2 9 Sudeste 13 Sudeste 0 1022.1 -- 74
2021-01-21 16:00:00 20.6 12 Sudeste 15 Sudeste 0 1022.1 -- 73
2021-01-21 15:00:00 20.6 12 Sudeste 17 Sudeste 0 1022.3 -- 73
2021-01-21 14:00:00 21 12 Sudeste 17 Sudeste 0 1022.6 -- 72
2021-01-21 13:00:00 21 12 Sur 18 Sur 0 1023.1 -- 72
2021-01-21 12:00:00 21.1 5 Oeste 21 Norte 0 1023.6 -- 69
2021-01-21 11:00:00 19.5 12 Norte 21 Norte 0 1024.1 -- 74
2021-01-21 10:00:00 18.3 5 Noroeste 13 Norte 0 1023.8 -- 79
2021-01-21 09:00:00 17.5 6 Noroeste 11 Norte 0 1023.2 -- 82
2021-01-21 08:00:00 17.2 3 Oeste 13 Noroeste 0 1022.6 -- 83
2021-01-21 07:00:00 17.2 5 Noroeste 15 Noroeste 0 1022.2 -- 82
2021-01-21 06:00:00 16.8 4 Oeste 11 Oeste 0 1021.7 -- 83
2021-01-21 05:00:00 16.7 4 Oeste 11 Norte 0 1021.6 -- 83
2021-01-21 04:00:00 16.6 5 Norte 13 Noroeste 0 1021.8 -- 84
2021-01-21 03:00:00 15 7 Norte 9 Norte 0 1021.6 -- 89
2021-01-21 02:00:00 14.5 4 Este 17 Norte 0 1021.6 -- 88
2021-01-21 01:00:00 14.4 5 Norte 13 Norte 0 1021.4 -- 88
2021-01-21 00:00:00 14.4 6 Este 9 Este 0 1021.8 -- 87
2021-01-20 23:00:00 15.2 5 Nordeste 11 Norte 0 1022 -- 83
2021-01-20 22:00:00 15.7 5 Sudeste 9 Norte 0 1022 -- 80
2021-01-20 21:00:00 16.9 7 Noroeste 13 Noroeste 0 1021.7 -- 74
2021-01-20 20:00:00 17.2 7 Noroeste 22 Noroeste 0 1021.4 -- 70
2021-01-20 19:00:00 18.2 11 Noroeste 21 Noroeste 0 1021.1 -- 66
2021-01-20 18:00:00 20.2 12 Noroeste 22 Oeste 0 1020.4 -- 56
2021-01-20 17:00:00 21.2 16 Oeste 24 Sur 0 1019.9 -- 45
2021-01-20 16:00:00 20.3 20 Sur 30 Sudoeste 0 1020.2 -- 66
2021-01-20 15:00:00 20 20 Sur 28 Sur 0 1020.3 -- 68
2021-01-20 14:00:00 20.2 16 Sur 22 Sur 0 1020.5 -- 66
2021-01-20 13:00:00 19.8 14 Sur 21 Sur 0 1021.1 -- 67
2021-01-20 12:00:00 19.4 13 Sur 18 Sur 0 1022.1 -- 69
2021-01-20 11:00:00 18.4 12 Sudeste 17 Sur 0 1022.1 -- 74
2021-01-20 10:00:00 17.5 6 Sur 9 Sur 0 1022 -- 75
2021-01-20 09:00:00 14.6 -- -- -- -- 0 1021.8 -- 88
2021-01-20 08:00:00 10.6 6 Noroeste 9 Noroeste 0 1021.6 -- 93
2021-01-20 07:00:00 11.1 5 Noroeste 11 Noroeste 0 1021.1 -- 91
2021-01-20 06:00:00 11 4 Noroeste 9 Noroeste 0 1020.9 -- 93
2021-01-20 05:00:00 11.3 5 Noroeste 13 Noroeste 0 1020.9 -- 91
2021-01-20 04:00:00 12.7 8 Noroeste -- -- 0 1021.1 -- 90
2021-01-20 03:00:00 12 11 Noroeste 11 Noroeste 0 1021 -- 92
2021-01-20 02:00:00 12.2 6 Noroeste 11 Noroeste 0 1021.2 -- 90
2021-01-20 01:00:00 12.4 5 Noroeste 8 Noroeste 0 1021.3 -- 89
2021-01-20 00:00:00 13.2 3 Noroeste 9 Noroeste 0 1021.9 -- 87
2021-01-19 23:00:00 12.6 4 Noroeste -- -- 0 1022.1 -- 88
2021-01-19 22:00:00 13.6 5 Noroeste 8 Noroeste 0 1022.1 -- 85
2021-01-19 21:00:00 14.1 3 Norte 8 Norte 0 1021.7 -- 82
2021-01-19 20:00:00 15.5 5 Norte 9 Este 0 1021.9 -- 78
2021-01-19 19:00:00 16.3 3 Sudeste 9 Sudeste 0 1021.9 -- 74
2021-01-19 18:00:00 17.7 6 Sudeste 11 Sudeste 0 1021.9 -- 70
2021-01-19 17:00:00 18.4 8 Sur 21 Sudeste 0 1021.3 -- 66
2021-01-19 16:00:00 18.9 12 Sudeste 17 Sudeste 0 1021.3 -- 64
2021-01-19 15:00:00 19.3 12 Sudeste 17 Sudeste 0 1022 -- 62
2021-01-19 14:00:00 19.6 9 Sudeste 17 Sudeste 0 1022.2 -- 60
2021-01-19 13:00:00 19.4 11 Sudeste 18 Sudeste 0 1023.2 -- 62
2021-01-19 12:00:00 19.4 12 Este 18 Este 0 1024.2 -- 60
2021-01-19 11:00:00 18.4 13 Este 18 Este 0 1024.7 -- 64
2021-01-19 10:00:00 17.7 9 Este 15 Este 0 1023.7 -- 66
2021-01-19 09:00:00 14.6 9 Norte 17 Norte 0 1023.8 -- 79
2021-01-19 08:00:00 12.4 14 Norte 18 Norte 0 1023.9 -- 84
2021-01-19 07:00:00 12.3 14 Norte 17 Norte 0 1023.3 -- 85
2021-01-19 06:00:00 12.1 13 Norte 17 Norte 0 1022.7 -- 87
2021-01-19 05:00:00 12.6 13 Norte 18 Norte 0 1022.7 -- 86
2021-01-19 04:00:00 12.6 9 Norte 17 Norte 0 1023.3 -- 88
2021-01-19 03:00:00 12.2 12 Norte 15 Norte 0 1023.7 -- 88
2021-01-19 02:00:00 12.3 11 Norte 18 Norte 0 1024.1 -- 87
2021-01-19 01:00:00 13.3 15 Norte 18 Norte 0 1024.5 -- 83
2021-01-19 00:00:00 13.4 12 Norte 21 Norte -- 1024.8 -- 83
2021-01-18 23:00:00 13.7 12 Norte 17 Norte 0 1024.9 -- 83
2021-01-18 22:00:00 14 10 Norte 18 Norte 0 1024.7 -- 83
2021-01-18 21:00:00 14.3 10 Norte 13 Norte 0 1024.8 -- 82
2021-01-18 20:00:00 15 9 Norte 11 Norte 0 1024.3 -- 79
2021-01-18 19:00:00 16.7 8 Nordeste 15 Este 0 1023.9 -- 72
2021-01-18 18:00:00 18.2 9 Este 18 Este 0 1023.1 -- 67
2021-01-18 17:00:00 19.4 11 Este 21 Este 0 1022.9 -- 64
2021-01-18 16:00:00 19.8 12 Este 21 Este 0 1022.8 -- 63
2021-01-18 15:00:00 20 12 Este 22 Este 0 1022.8 -- 64
2021-01-18 14:00:00 19.9 14 Este 22 Este 0 1023.2 -- 63
2021-01-18 13:00:00 19.8 16 Este 22 Este 0 1023.8 -- 64
2021-01-18 12:00:00 19.8 14 Este 22 Este 0 1024.7 -- 65
2021-01-18 11:00:00 19.2 12 Este 18 Este 0 1025 -- 65
2021-01-18 10:00:00 17.9 11 Nordeste 17 Nordeste 0 1024.7 -- 71
2021-01-18 09:00:00 14.8 11 Norte 15 Norte 0 1024.1 -- 83
2021-01-18 08:00:00 12.5 13 Norte 18 Norte 0 1023.8 -- 86
2021-01-18 07:00:00 12.3 15 Norte 18 Norte 0 1023.2 -- 84
2021-01-18 06:00:00 12.1 13 Norte 17 Norte 0 1022.7 -- 89
2021-01-18 05:00:00 12.8 13 Norte 17 Norte 0 1022.6 -- 88
2021-01-18 04:00:00 12.2 13 Norte 15 Norte 0 1022.6 -- 90
2021-01-18 03:00:00 12.6 12 Norte 18 Norte 0 1022.8 -- 87
2021-01-18 02:00:00 13.2 13 Norte 18 Norte 0 1023.3 -- 85
2021-01-18 01:00:00 13 12 Norte 18 Norte 0 1023.3 -- 88
2021-01-18 00:00:00 13.4 13 Norte 22 Norte 0 1023.7 -- 87
2021-01-17 23:00:00 14.2 14 Norte 21 Norte 0 1023.9 -- 83
2021-01-17 22:00:00 13.5 10 Norte 21 Norte 0 1023.9 -- 84
2021-01-17 21:00:00 14.6 13 Norte 17 Norte 0 1023.7 -- 80
2021-01-17 20:00:00 14.7 10 Norte 17 Norte 0 1023.9 -- 83
2021-01-17 19:00:00 16.5 9 Nordeste 18 Nordeste 0 1023.3 -- 78
2021-01-17 18:00:00 18 9 Este 18 Este 0 1023.1 -- 72
2021-01-17 17:00:00 19.1 13 Este 21 Este 0 1022.8 -- 68
2021-01-17 16:00:00 19.3 14 Este 24 Este 0 1022.6 -- 66
2021-01-17 15:00:00 19.6 15 Este 28 Este 0 1022.7 -- 62
2021-01-17 14:00:00 19.5 17 Este 28 Este 0 1023.2 -- 63
2021-01-17 13:00:00 19.7 17 Este 26 Este 0 1024 -- 65
2021-01-17 12:00:00 19 13 Este 30 Nordeste 0 1024.8 -- 66
2021-01-17 11:00:00 19.4 18 Nordeste 28 Nordeste 0 1024.9 -- 59
2021-01-17 10:00:00 18.3 19 Nordeste 32 Nordeste 0 1024.5 -- 61
2021-01-17 09:00:00 16.1 12 Nordeste 22 Nordeste 0 1023.7 -- 70
2021-01-17 08:00:00 16.2 14 Nordeste 21 Nordeste 0 1023.4 -- 70
2021-01-17 07:00:00 16.3 15 Nordeste 28 Nordeste 0 1022.9 -- 68
2021-01-17 06:00:00 15.9 12 Nordeste 26 Nordeste 0 1022.5 -- 73
2021-01-17 05:00:00 15.7 16 Nordeste 26 Nordeste 0 1022 -- 73
2021-01-17 04:00:00 15.6 14 Nordeste 24 Norte 0 1022.2 -- 73
2021-01-17 03:00:00 15.6 14 Nordeste 22 Nordeste 0 1022.5 -- 72
2021-01-17 02:00:00 15.1 13 Norte 21 Norte 0 1022.9 -- 72
2021-01-17 01:00:00 14.2 12 Norte 17 Norte 0 1023.5 -- 78
2021-01-17 00:00:00 14.5 16 Norte 24 Norte 0 1023.7 -- 75
2021-01-16 23:00:00 13.9 14 Norte 26 Norte 0 1023.7 -- 77
2021-01-16 22:00:00 14.3 14 Norte 26 Norte 0 1023.4 -- 73
2021-01-16 21:00:00 15.2 17 Norte 30 Norte 0 1023.2 -- 69
2021-01-16 20:00:00 16.1 21 Nordeste 33 Nordeste 0 1022.9 -- 64
2021-01-16 19:00:00 16.7 20 Nordeste 35 Nordeste 0 1022.7 -- 61
2021-01-16 18:00:00 17.4 27 Nordeste 39 Nordeste 0 1022.4 -- 59
2021-01-16 17:00:00 18.2 24 Nordeste 39 Nordeste 0 1022.2 -- 56
2021-01-16 16:00:00 18.6 23 Nordeste 41 Nordeste 0 1022.1 -- 56
2021-01-16 15:00:00 19.5 20 Nordeste 39 Nordeste 0 1021.9 -- 53
2021-01-16 14:00:00 20.2 23 Nordeste 39 Nordeste 0 1022.3 -- 51
2021-01-16 13:00:00 20 22 Nordeste 45 Nordeste 0 1023.3 -- 51
2021-01-16 12:00:00 19.5 30 Nordeste 46 Nordeste 0 1023.9 -- 54
2021-01-16 11:00:00 19.1 31 Nordeste 52 Nordeste 0 1023.4 -- 56
2021-01-16 10:00:00 18.1 33 Nordeste 54 Nordeste 0 1023.3 -- 59
2021-01-16 09:00:00 16.1 22 Norte 30 Nordeste 0 1023.2 -- 64
2021-01-16 08:00:00 15 17 Nordeste 24 Norte 0 1023.1 -- 71
2021-01-16 07:00:00 14.6 14 Nordeste 26 Norte 0 1023.2 -- 71
2021-01-16 06:00:00 15.3 18 Norte 26 Norte 0 1023.1 -- 67
2021-01-16 05:00:00 14.9 14 Norte 26 Norte 0 1022.5 -- 69
2021-01-16 04:00:00 14.5 19 Norte 26 Norte 0 1022.5 -- 70
2021-01-16 03:00:00 15.1 17 Nordeste 28 Nordeste 0 1023.4 -- 68
2021-01-16 02:00:00 14.6 17 Norte 30 Nordeste 0 1023.4 -- 70
2021-01-16 01:00:00 15.2 14 Nordeste 26 Nordeste 0 1023.3 -- 70
2021-01-16 00:00:00 15.4 20 Nordeste 32 Nordeste 0 1024 -- 66
2021-01-15 23:00:00 15.6 18 Nordeste 39 Nordeste 0 1024.1 -- 65
2021-01-15 22:00:00 15.6 22 Norte 37 Nordeste 0 1024 -- 64
2021-01-15 21:00:00 16.3 18 Nordeste 32 Nordeste 0 1023.9 -- 67
2021-01-15 20:00:00 16 19 Nordeste 35 Norte 0 1023.8 -- 60
2021-01-15 19:00:00 16.6 26 Norte 39 Nordeste 0 1023.9 -- 59
2021-01-15 18:00:00 17.3 23 Nordeste 42 Nordeste 0 1023.6 -- 63
2021-01-15 17:00:00 17.7 26 Nordeste 41 Nordeste 0 1023.4 -- 53
2021-01-15 16:00:00 18.7 25 Nordeste 41 Nordeste 0 1023.2 -- 49
2021-01-15 15:00:00 19 29 Nordeste 41 Nordeste 0 1023.4 -- 50
2021-01-15 14:00:00 19.2 27 Norte 37 Nordeste 0 1023.9 -- 49
2021-01-15 13:00:00 18.6 27 Nordeste 45 Norte 0 1024.5 -- 53
2021-01-15 12:00:00 18.6 27 Nordeste 42 Nordeste 0 1025.4 -- 51
2021-01-15 11:00:00 17.8 26 Nordeste 45 Nordeste 0 1025.8 -- 56
2021-01-15 10:00:00 16.7 29 Nordeste 42 Nordeste 0 1025.6 -- 59
2021-01-15 09:00:00 16.1 22 Norte 30 Norte 0 1024.9 -- 65
2021-01-15 08:00:00 15.4 19 Norte 37 Norte 0 1024.4 -- 60
2021-01-15 07:00:00 15.7 23 Nordeste 33 Nordeste 0 1023.9 -- 64
2021-01-15 06:00:00 15.5 17 Nordeste 30 Nordeste 0 1024.3 -- 61
2021-01-15 05:00:00 15.4 22 Norte 39 Norte 0 1024.1 -- 60
2021-01-15 04:00:00 15.5 21 Nordeste 33 Nordeste 0 1024.3 -- 61
2021-01-15 03:00:00 15.5 16 Norte 35 Norte 0 1024.5 -- 60
2021-01-15 02:00:00 15.5 14 Nordeste 35 Nordeste 0 1024.9 -- 61
2021-01-15 01:00:00 15.7 22 Nordeste 33 Nordeste 0 1025 -- 62
2021-01-15 00:00:00 15.6 19 Norte 33 Nordeste 0 1025.4 -- 59
2021-01-14 23:00:00 15.6 17 Norte 39 Nordeste 0 1025.7 -- 58
2021-01-14 22:00:00 16 25 Nordeste 35 Nordeste 0 1025.8 -- 58
2021-01-14 21:00:00 14.3 13 Norte 24 Norte 0 1025.6 -- 67
2021-01-14 20:00:00 15.6 18 Norte 35 Nordeste 0 1025.7 -- 63
2021-01-14 19:00:00 16.7 20 Nordeste 39 Nordeste 0 1025.4 -- 61
2021-01-14 18:00:00 17.1 23 Nordeste 39 Nordeste 0 1025.2 -- 64
2021-01-14 17:00:00 17.7 24 Nordeste 39 Nordeste 0 1025.2 -- 62
2021-01-14 16:00:00 18.7 22 Nordeste 39 Nordeste 0 1024.9 -- 51
2021-01-14 15:00:00 18.8 23 Nordeste 37 Nordeste 0 1024.9 -- 49
2021-01-14 14:00:00 19.4 24 Nordeste 37 Nordeste 0 1025.6 -- 49
2021-01-14 13:00:00 18.7 23 Nordeste 37 Nordeste 0 1026.4 -- 53
2021-01-14 12:00:00 19.1 21 Nordeste 33 Este 0 1027.2 -- 51
2021-01-14 11:00:00 18.5 22 Nordeste 37 Nordeste 0 1027.9 -- 55
2021-01-14 10:00:00 17.3 21 Nordeste 30 Norte 0 1027.5 -- 63
2021-01-14 09:00:00 14.5 19 Norte 26 Norte 0 1026.9 -- 76
2021-01-14 08:00:00 12.6 17 Norte 26 Norte 0 1026.4 -- 82
2021-01-14 07:00:00 12.5 19 Norte 24 Norte 0 1025.9 -- 82
2021-01-14 06:00:00 13.7 14 Norte 26 Norte 0 1025.4 -- 78
2021-01-14 05:00:00 12.8 20 Norte 26 Norte 0 1025.6 -- 84
2021-01-14 04:00:00 12.7 17 Norte 24 Norte 0 1025.9 -- 83
2021-01-14 03:00:00 12.9 19 Norte 26 Norte 0 1026 -- 82
2021-01-14 02:00:00 13.1 19 Norte 24 Norte 0 1026.1 -- 82
2021-01-14 01:00:00 13.5 14 Norte 21 Norte 0 1026.3 -- 75
2021-01-14 00:00:00 13.9 14 Norte 22 Norte 0 1026.6 -- 73
2021-01-13 23:00:00 13.7 14 Norte 22 Norte 0 1026.6 -- 70
2021-01-13 22:00:00 14.5 15 Norte 21 Norte 0 1026.5 -- 64
2021-01-13 21:00:00 14.3 13 Norte 17 Norte 0 1026.1 -- 68
2021-01-13 20:00:00 14.8 12 Norte 17 Norte 0 1025.8 -- 67
2021-01-13 19:00:00 16.2 10 Norte 18 Nordeste 0 1025.2 -- 63
2021-01-13 18:00:00 18.4 13 Nordeste 21 Nordeste 0 1025 -- 51
2021-01-13 17:00:00 19.8 12 Este 21 Este 0 1024.6 -- 47
2021-01-13 16:00:00 20.1 12 Este 21 Este 0 1024.6 -- 45
2021-01-13 15:00:00 20.4 12 Este 18 Este 0 1024.5 -- 47
2021-01-13 14:00:00 20.4 10 Este 18 Este 0 1024.7 -- 47
2021-01-13 13:00:00 20.2 12 Este 18 Sudeste 0 1025.1 -- 51
2021-01-13 12:00:00 20 11 Este 18 Este 0 1025.9 -- 53
2021-01-13 11:00:00 19.4 10 Este 22 Este 0 1026.3 -- 55
2021-01-13 10:00:00 16.7 14 Norte 22 Norte 0 1026 -- 74
2021-01-13 09:00:00 13.9 16 Norte 26 Norte 0 1025.3 -- 80
2021-01-13 08:00:00 12.6 20 Norte 26 Norte 0 1024.8 -- 82
2021-01-13 07:00:00 12.3 19 Norte 24 Norte 0 1024.4 -- 81
2021-01-13 06:00:00 11.3 14 Norte 26 Norte 0 1023.8 -- 85
2021-01-13 05:00:00 12.3 17 Norte 26 Norte 0 1023.5 -- 81
2021-01-13 04:00:00 12.2 19 Norte 26 Norte 0 1023.7 -- 82
2021-01-13 03:00:00 12.5 20 Norte 32 Norte 0 1024 -- 82
2021-01-13 02:00:00 12.6 20 Norte 28 Norte 0 1023.8 -- 81
2021-01-13 01:00:00 12.4 18 Norte 28 Norte 0 1024 -- 81
2021-01-13 00:00:00 12.8 18 Norte 26 Norte 0 1024 -- 79
2021-01-12 23:00:00 12.9 17 Nordeste 24 Nordeste 0 1024.1 -- 78
2021-01-12 22:00:00 12.1 14 Norte 18 Norte 0 1023.8 -- 82
2021-01-12 21:00:00 13.1 16 Norte 22 Norte 0 1023.5 -- 77
2021-01-12 20:00:00 13.7 12 Nordeste 21 Nordeste 0 1022.9 -- 77
2021-01-12 19:00:00 15.4 13 Nordeste 30 Nordeste 0 1022.5 -- 69
2021-01-12 18:00:00 16.4 17 Nordeste 28 Nordeste 0 1022 -- 65
2021-01-12 17:00:00 17 17 Nordeste 30 Nordeste 0 1021.9 -- 62
2021-01-12 16:00:00 17.9 19 Nordeste 30 Nordeste 0 1021.6 -- 60
2021-01-12 15:00:00 17.5 17 Nordeste 32 Nordeste 0 1021.5 -- 61
2021-01-12 14:00:00 18.1 18 Nordeste 28 Nordeste 0 1021.9 -- 59
2021-01-12 13:00:00 17.1 13 Nordeste 24 Nordeste 0 1022.8 -- 64
2021-01-12 12:00:00 15.8 17 Norte 30 Norte 0.1 1023.6 -- 79
2021-01-12 11:00:00 16 16 Norte 26 Norte 0.2 1023.8 -- 74
2021-01-12 10:00:00 16.9 15 Norte 22 Norte 0 1023.4 -- 59
2021-01-12 09:00:00 14.8 15 Norte 21 Norte 0 1022.5 -- 66
2021-01-12 08:00:00 13.4 17 Norte 24 Norte 0 1021.7 -- 75
2021-01-12 07:00:00 13.3 20 Norte 26 Norte 0 1021.3 -- 78
2021-01-12 06:00:00 13.6 17 Norte 22 Norte 0 1021.1 -- 76
2021-01-12 05:00:00 14 13 Norte 22 Norte 0 1021.2 -- 77
2021-01-12 04:00:00 14 14 Norte 21 Norte 0 1021.6 -- 79
2021-01-12 03:00:00 13.2 13 Norte 18 Norte 0 1021.7 -- 81
2021-01-12 02:00:00 13.4 12 Norte 22 Norte 0 1021.8 -- 84
2021-01-12 01:00:00 12.5 12 Norte 21 Norte 0 1021.8 -- 84
2021-01-12 00:00:00 13.4 16 Norte 21 Norte 0 1022 -- 81
2021-01-11 23:00:00 13.4 14 Norte 18 Norte 0 1022.1 -- 80
2021-01-11 22:00:00 12.7 15 Norte 21 Norte 0 1022.1 -- 84
2021-01-11 21:00:00 13.7 15 Nordeste 22 Nordeste 0 1021.4 -- 77
2021-01-11 20:00:00 14.2 17 Norte 28 Norte 0 1020.9 -- 80
2021-01-11 19:00:00 14.9 18 Norte 26 Norte 0 1020.3 -- 75
2021-01-11 18:00:00 15.5 27 Norte 45 Norte 0 1019.8 -- 68
2021-01-11 17:00:00 17.5 30 Norte 46 Norte 0 1019.4 -- 63
2021-01-11 16:00:00 18 30 Norte 45 Norte 0 1019.5 -- 63
2021-01-11 15:00:00 16.6 34 Norte 50 Norte 0 1019.2 -- 74
2021-01-11 14:00:00 18.3 24 Norte 45 Norte 0 1019.5 -- 62
2021-01-11 13:00:00 17.6 30 Norte 50 Norte 0 1020.5 -- 67
2021-01-11 12:00:00 18.1 30 Norte 45 Norte 0 1021.2 -- 65
2021-01-11 11:00:00 17.4 23 Norte 33 Norte 0 1021.6 -- 69
2021-01-11 10:00:00 14 10 Norte 32 Norte 0.3 1021.6 -- 86
2021-01-11 09:00:00 13.7 4 Sur 11 Noroeste 0 1020.9 -- 83
2021-01-11 08:00:00 12.7 13 Norte 26 Norte 0.8 1020.1 -- 89
2021-01-11 07:00:00 13 11 Norte 30 Norte 0 1019.6 -- 83
2021-01-11 06:00:00 14.1 17 Noroeste 30 Noroeste 0 1018.9 -- 69
2021-01-11 05:00:00 13.7 18 Norte 28 Norte 0 1019 -- 70
2021-01-11 04:00:00 13.7 14 Noroeste 30 Norte 0 1019.2 -- 67
2021-01-11 03:00:00 13.5 15 Norte 26 Noroeste 0 1019.1 -- 65
2021-01-11 02:00:00 13.9 14 Norte 30 Noroeste 0 1019.4 -- 64
2021-01-11 01:00:00 12.4 16 Norte 22 Norte 0 1019.6 -- 73
2021-01-11 00:00:00 13.7 17 Norte 32 Noroeste 0 1019.9 -- 61
2021-01-10 23:00:00 14 17 Norte 28 Norte 0 1020 -- 66
2021-01-10 22:00:00 13.8 17 Norte 33 Norte 0 1019.8 -- 70
2021-01-10 21:00:00 14.8 19 Norte 33 Norte 0 1019.7 -- 67
2021-01-10 20:00:00 14.3 17 Norte 32 Noroeste 0 1019.1 -- 76
2021-01-10 19:00:00 13.9 27 Noroeste 42 Noroeste 0.2 1018.9 -- 87
2021-01-10 18:00:00 14.8 23 Noroeste 45 Norte 0.1 1018.3 -- 85
2021-01-10 17:00:00 16.3 30 Noroeste 54 Norte 0.1 1017.9 -- 74
2021-01-10 16:00:00 18 34 Noroeste 52 Noroeste 0 1017.5 -- 63
2021-01-10 15:00:00 18.3 30 Noroeste 65 Noroeste 0.1 1017.5 -- 64
2021-01-10 14:00:00 17.5 35 Noroeste 61 Noroeste 0 1018.1 -- 70
2021-01-10 13:00:00 16.5 28 Noroeste 55 Noroeste 0.1 1018.7 -- 79
2021-01-10 12:00:00 16.2 32 Noroeste 48 Noroeste 0.3 1019.7 -- 76
2021-01-10 11:00:00 17.4 31 Noroeste 46 Noroeste 0.1 1019.9 -- 66
2021-01-10 10:00:00 16.4 38 Noroeste 59 Noroeste 0.1 1019.9 -- 77
2021-01-10 09:00:00 15 30 Noroeste 46 Norte 0 1018.8 -- 77
2021-01-10 08:00:00 14.5 28 Noroeste 45 Norte 0.4 1018.1 -- 74
2021-01-10 07:00:00 14.1 29 Noroeste 45 Noroeste 0 1017.7 -- 80
2021-01-10 06:00:00 12.8 31 Noroeste 59 Noroeste 0.7 1017.3 -- 92
2021-01-10 05:00:00 15 24 Noroeste 42 Norte 0 1017.3 -- 69
2021-01-10 04:00:00 13 15 Noroeste 37 Noroeste 0.2 1017.6 -- 88
2021-01-10 03:00:00 13.8 19 Noroeste 46 Noroeste 0.5 1017.7 -- 73
2021-01-10 02:00:00 14.4 22 Noroeste 35 Noroeste 0 1018 -- 72
2021-01-10 01:00:00 14.2 17 Noroeste 37 Noroeste 0 1018.2 -- 70
2021-01-10 00:00:00 13.6 9 Norte 30 Noroeste 0 1018.8 -- 76
2021-01-09 23:00:00 14.3 17 Noroeste 33 Noroeste 0 1018.8 -- 70
2021-01-09 22:00:00 13.6 27 Norte 41 Norte 0.2 1018.6 -- 83
2021-01-09 21:00:00 14.7 19 Noroeste 35 Noroeste 0 1018.4 -- 65
2021-01-09 20:00:00 14.8 18 Noroeste 35 Norte 0 1017.7 -- 63
2021-01-09 19:00:00 14.9 17 Norte 35 Norte 0 1017.6 -- 61
2021-01-09 18:00:00 15.6 16 Noroeste 35 Norte 0 1017.1 -- 65
2021-01-09 17:00:00 16.1 22 Norte 39 Norte 0 1016.9 -- 64
2021-01-09 16:00:00 16.7 32 Noroeste 45 Noroeste 0 1016.4 -- 61
2021-01-09 15:00:00 16.1 32 Norte 45 Norte 0.1 1015.6 -- 75
2021-01-09 14:00:00 16.8 32 Noroeste 50 Noroeste 0 1015.5 -- 65
2021-01-09 13:00:00 16.7 20 Norte 39 Norte 0 1015.9 -- 65
2021-01-09 12:00:00 13.9 20 Norte 61 Norte 2.3 1016.6 -- 85
2021-01-09 11:00:00 16.7 19 Norte 42 Norte 0 1016.7 -- 71
2021-01-09 10:00:00 15.2 13 Noroeste 30 Norte 0 1016.2 -- 70
2021-01-09 09:00:00 14.9 15 Noroeste 28 Noroeste 0 1015.2 -- 66
2021-01-09 08:00:00 12.8 8 Oeste 22 Noroeste 0 1014.7 -- 83
2021-01-09 07:00:00 12.3 10 Noroeste 26 Noroeste 1.5 1014.1 -- 88
2021-01-09 06:00:00 12.6 12 Noroeste 30 Noroeste 0.4 1013.6 -- 87
2021-01-09 05:00:00 12 25 Noroeste 35 Noroeste 1.6 1013.6 -- 95
2021-01-09 04:00:00 12.8 12 Norte 28 Norte 0.7 1013.4 -- 82
2021-01-09 03:00:00 12.9 5 Noroeste 18 Noroeste 0 1013.3 -- 79
2021-01-09 02:00:00 14.1 12 Noroeste 18 Noroeste 0 1013 -- 75
2021-01-09 01:00:00 14.4 16 Noroeste 24 Noroeste 0 1012.9 -- 69
2021-01-09 00:00:00 13.5 4 Norte 21 Noroeste 0 1012.9 -- 82
2021-01-08 23:00:00 14.9 18 Noroeste 33 Norte 0 1012.7 -- 76
2021-01-08 22:00:00 15.3 17 Noroeste 24 Noroeste 0 1012.4 -- 69
2021-01-08 21:00:00 15.3 14 Norte 26 Norte 0 1012 -- 71
2021-01-08 20:00:00 15.9 10 Noroeste 30 Noroeste 0 1011.5 -- 71
2021-01-08 19:00:00 16.5 18 Noroeste 33 Norte 0 1010.4 -- 70
2021-01-08 18:00:00 16.7 22 Noroeste 41 Noroeste 0 1009.3 -- 74
2021-01-08 17:00:00 17.6 27 Noroeste 46 Noroeste 0 1008.3 -- 69
2021-01-08 16:00:00 18 27 Noroeste 46 Noroeste 0 1008 -- 73
2021-01-08 15:00:00 17.5 31 Noroeste 48 Noroeste 0.2 1007.3 -- 80
2021-01-08 14:00:00 19.1 30 Noroeste 46 Noroeste 0 1006.8 -- 75
2021-01-08 13:00:00 18 25 Noroeste 48 Noroeste 0.1 1006.8 -- 84
2021-01-08 12:00:00 19.6 31 Noroeste 46 Noroeste 0.1 1007 -- 72
2021-01-08 11:00:00 19.7 28 Oeste 48 Oeste 0 1006.6 -- 69
2021-01-08 10:00:00 19.3 34 Oeste 48 Oeste 0 1005.7 -- 75
2021-01-08 09:00:00 18.4 30 Oeste 48 Oeste 0 1004.3 -- 78
2021-01-08 08:00:00 18 32 Oeste 48 Oeste 0 1002.9 -- 81
2021-01-08 07:00:00 18.6 32 Oeste 55 Oeste 0 1001.4 -- 80
2021-01-08 06:00:00 18.7 31 Oeste 52 Sudoeste 0.6 1000.6 -- 84
2021-01-08 05:00:00 19.3 34 Sudoeste 61 Sudoeste 0.4 1000.3 -- 91
2021-01-08 04:00:00 19.6 40 Sudoeste 61 Sudoeste 0 1000.5 -- 89
2021-01-08 03:00:00 19.8 41 Sudoeste 61 Sudoeste 0 1000.5 -- 85
2021-01-08 02:00:00 19.7 23 Sudoeste 39 Sur 0 1000.7 -- 88
2021-01-08 01:00:00 20.1 22 Sudoeste 42 Sudoeste 0 1001.3 -- 83
2021-01-08 00:00:00 19.6 17 Sudoeste 26 Sur 0 1002.1 -- 92
2021-01-07 23:00:00 19.7 14 Sur 28 Sur 0 1003.1 -- 92
2021-01-07 22:00:00 20.2 22 Sur 45 Sudoeste 0 1003.1 -- 88
2021-01-07 21:00:00 20.2 21 Sudoeste 41 Sudoeste 0 1003.1 -- 88
2021-01-07 20:00:00 20.1 27 Sudoeste 39 Sudoeste 0 1003.2 -- 90
2021-01-07 19:00:00 20.2 30 Sudoeste 45 Sudoeste 0 1002.9 -- 91
2021-01-07 18:00:00 20.4 30 Sudoeste 52 Sudoeste 0 1002.7 -- 90
2021-01-07 17:00:00 21.3 37 Sudoeste 50 Sudoeste 0 1002.7 -- 84
2021-01-07 16:00:00 21.5 36 Sudoeste 50 Sudoeste 0.2 1002.8 -- 86
2021-01-07 15:00:00 19.1 21 Sudoeste 39 Sudoeste 12.6 1002.7 -- 93
2021-01-07 14:00:00 16.6 27 Sudoeste 59 Oeste 19.4 1003.3 -- 98
2021-01-07 13:00:00 20.4 37 Sudoeste 65 Sudoeste 0.1 1003.9 -- 89
2021-01-07 12:00:00 21.8 42 Sudoeste 63 Sudoeste 0 1004.5 -- 78
2021-01-07 11:00:00 21.2 19 Sur 39 Sur 0 1004.8 -- 83
2021-01-07 10:00:00 21.9 31 Sur 45 Sudoeste 0 1004.6 -- 80
2021-01-07 09:00:00 20.4 22 Sur 32 Sudoeste 0 1004.1 -- 86
2021-01-07 08:00:00 19.6 19 Sur 30 Sur 0 1003.8 -- 92
2021-01-07 07:00:00 19.7 21 Sudoeste 39 Sudoeste 0 1003.7 -- 90
2021-01-07 06:00:00 19.8 27 Sudoeste 42 Sudoeste 0 1003.7 -- 89
2021-01-07 05:00:00 19.6 27 Sudoeste 39 Sudoeste 0 1003.6 -- 90
2021-01-07 04:00:00 19.3 19 Sudoeste 30 Sudoeste 0 1004.1 -- 94
2021-01-07 03:00:00 19.3 21 Sudoeste 30 Sudoeste 0 1004.6 -- 94
2021-01-07 02:00:00 19.5 18 Sudoeste 33 Sudoeste 0 1004.9 -- 94
2021-01-07 01:00:00 19.5 21 Sudoeste 32 Sudoeste 0 1005.2 -- 92
2021-01-07 00:00:00 18.9 12 Sudoeste 18 Sudoeste 0 1005.4 -- 98
2021-01-06 23:00:00 18.9 13 Sudoeste 22 Sudoeste 0 1005.3 -- 96
2021-01-06 22:00:00 19.3 19 Sudoeste 30 Sudoeste 0 1005.5 -- 95
2021-01-06 21:00:00 19.7 19 Sudoeste 35 Sudoeste 0 1005.2 -- 94
2021-01-06 20:00:00 19.8 25 Sudoeste 35 Sudoeste 0 1005.1 -- 95
2021-01-06 19:00:00 19.9 18 Sudoeste 37 Sudoeste 0 1004.1 -- 91
2021-01-06 18:00:00 20.4 30 Sudoeste 41 Sudoeste 0.2 1003.7 -- 94
2021-01-06 17:00:00 20.5 28 Sudoeste 50 Sudoeste 0.7 1003.6 -- 94
2021-01-06 16:00:00 21.6 36 Sudoeste 55 Sudoeste 0 1003 -- 85
2021-01-06 15:00:00 22 40 Sudoeste 55 Sudoeste 0 1003 -- 81
2021-01-06 14:00:00 22.9 40 Sudoeste 58 Sudoeste 0 1003.2 -- 75
2021-01-06 13:00:00 23.2 40 Sudoeste 59 Sudoeste 0 1003.9 -- 73
2021-01-06 12:00:00 20.7 20 Sudoeste 39 Sudoeste 0 1005.2 -- 87
2021-01-06 11:00:00 20.8 19 Sur 39 Sudoeste 0 1005.8 -- 85
2021-01-06 10:00:00 20.8 27 Sudoeste 46 Sudoeste 0 1006 -- 81
2021-01-06 09:00:00 20.3 28 Sudoeste 39 Sudoeste 0 1005.6 -- 81
2021-01-06 08:00:00 19 18 Sudoeste 30 Sudoeste 0 1005.1 -- 88
2021-01-06 07:00:00 18.6 18 Sudoeste 26 Sur 0 1004.6 -- 91
2021-01-06 06:00:00 18.5 21 Sudoeste 28 Sudoeste 0 1004.4 -- 93
2021-01-06 05:00:00 18.4 16 Sudoeste 28 Sudoeste 0 1005 -- 93
2021-01-06 04:00:00 18.5 18 Sudoeste 24 Sudoeste 0 1005.3 -- 91
2021-01-06 03:00:00 18.6 8 Sudoeste 18 Sur 0 1006.1 -- 96
2021-01-06 02:00:00 18.6 14 Sur 18 Sur 0 1006.7 -- 97
2021-01-06 01:00:00 16.7 5 Oeste 9 Oeste 0 1007.5 -- 94
2021-01-06 00:00:00 16 5 Noroeste 5 Noroeste 0 1007.9 -- 92
2021-01-05 23:00:00 16.6 4 Norte 13 Oeste 0 1008.5 -- 91
2021-01-05 22:00:00 18 6 Oeste 13 Oeste 0 1008.4 -- 88
2021-01-05 21:00:00 18.5 10 Oeste 15 Oeste 0 1008.3 -- 88
2021-01-05 20:00:00 19.1 11 Oeste 18 Sudoeste 0 1008.4 -- 86
2021-01-05 19:00:00 20 13 Sudoeste 24 Sudoeste 0 1008.1 -- 83
2021-01-05 18:00:00 21.2 17 Oeste 30 Sudoeste 0 1007.7 -- 70
2021-01-05 17:00:00 22.8 22 Oeste 37 Sudoeste 0 1007.3 -- 62
2021-01-05 16:00:00 23 22 Oeste 35 Oeste 0 1006.8 -- 62
2021-01-05 15:00:00 23.4 17 Oeste 41 Oeste 0 1006.7 -- 61
2021-01-05 14:00:00 23.3 27 Oeste 42 Oeste 0 1007.2 -- 60
2021-01-05 13:00:00 23.6 28 Oeste 42 Oeste 0 1007.6 -- 62
2021-01-05 12:00:00 23 26 Oeste 39 Sudoeste 0 1008.7 -- 63
2021-01-05 11:00:00 22 23 Oeste 35 Oeste 0 1009.3 -- 72
2021-01-05 10:00:00 20.4 19 Oeste 32 Oeste 0 1009.5 -- 84
2021-01-05 09:00:00 19.3 16 Oeste 26 Sudoeste 0.1 1008.6 -- 92
2021-01-05 08:00:00 18 10 Sudoeste 28 Sudoeste 0 1008.2 -- 94
2021-01-05 07:00:00 18.5 14 Oeste 26 Oeste 0 1007.9 -- 93
2021-01-05 06:00:00 18.2 14 Sudoeste 22 Oeste 0 1007.4 -- 93
2021-01-05 05:00:00 18.1 14 Sudoeste 22 Sur 0 1007.9 -- 89
2021-01-05 04:00:00 18.2 17 Sudoeste 24 Sudoeste 0 1008.1 -- 85
2021-01-05 03:00:00 17.2 12 Sudoeste 18 Sudoeste 0 1008.7 -- 84
2021-01-05 02:00:00 16.4 13 Oeste 15 Oeste 0 1009.2 -- 83
2021-01-05 01:00:00 16.3 9 Oeste 13 Oeste 0 1008.9 -- 82
2021-01-05 00:00:00 16.4 12 Oeste 15 Oeste 0 1009.4 -- 81
2021-01-04 23:00:00 16.3 11 Sudoeste 24 Sudoeste 0 1010 -- 80
2021-01-04 22:00:00 17 19 Sudoeste 28 Sudoeste 0 1010.3 -- 78
2021-01-04 21:00:00 17.1 25 Sudoeste 32 Sudoeste 0 1010.3 -- 79
2021-01-04 20:00:00 17.2 27 Sur 33 Sur 0 1010.2 -- 79
2021-01-04 19:00:00 17.3 25 Sur 33 Sur 0 1010.3 -- 79
2021-01-04 18:00:00 17.6 22 Sur 30 Sur 0 1010.4 -- 77
2021-01-04 17:00:00 17.9 19 Sur 26 Sur 0 1010.1 -- 70
2021-01-04 16:00:00 18.2 18 Sur 26 Sur 0 1010 -- 66
2021-01-04 15:00:00 18.7 14 Sur 21 Sur 0 1010 -- 62
2021-01-04 14:00:00 18.9 11 Sur 18 Sur 0 1010.5 -- 59
2021-01-04 13:00:00 18.5 13 Sur 17 Sudeste 0 1011.7 -- 59
2021-01-04 12:00:00 18.3 8 Sudeste 15 Sudeste 0 1012.9 -- 58
2021-01-04 11:00:00 18.2 11 Sudeste 17 Este 0 1013.4 -- 57
2021-01-04 10:00:00 16.4 4 Nordeste 11 Nordeste 0 1013.6 -- 66
2021-01-04 09:00:00 14.7 9 Norte 15 Norte 0 1013.1 -- 72
2021-01-04 08:00:00 13.3 8 Norte 15 Norte 0 1012.6 -- 75
2021-01-04 07:00:00 13.3 13 Norte -- -- -- 1012.8 -- 75
2021-01-04 06:00:00 13.8 12 Norte 15 Norte 0 1013.3 -- 74
2021-01-04 05:00:00 13.7 11 Norte 15 Norte 0 1013.2 -- 75
2021-01-04 04:00:00 13.5 11 Norte 13 Norte 0 1013.1 -- 76
2021-01-04 03:00:00 13.4 11 Norte 15 Norte 0 1013.5 -- 76
2021-01-04 02:00:00 13.1 11 Norte 15 Norte 0 1013.6 -- 76
2021-01-04 01:00:00 13.5 8 Norte 15 Norte 0 1013.8 -- 75
2021-01-04 00:00:00 14.2 10 Norte 17 Norte 0 1014.5 -- 74
2021-01-03 23:00:00 14.3 13 Norte 17 Norte 0 1014.8 -- 74
2021-01-03 22:00:00 15.2 10 Norte 15 Norte 0 1015 -- 71
2021-01-03 21:00:00 15.7 9 Norte 13 Norte 0 1015 -- 71
2021-01-03 20:00:00 16.4 12 Nordeste 22 Este 0 1014.5 -- 66
2021-01-03 19:00:00 16.7 12 Nordeste 22 Nordeste 0 1014.1 -- 66
2021-01-03 18:00:00 17.1 15 Nordeste 26 Nordeste 0 1014 -- 63
2021-01-03 17:00:00 17.7 18 Nordeste 28 Nordeste 0 1013.9 -- 60
2021-01-03 16:00:00 18.1 14 Nordeste 26 Nordeste 0 1013.6 -- 59
2021-01-03 15:00:00 17.9 17 Nordeste 26 Este 0 1013.9 -- 60
2021-01-03 14:00:00 18.2 15 Nordeste 28 Nordeste 0 1014.3 -- 55
2021-01-03 13:00:00 18.3 17 Nordeste 30 Nordeste 0 1015.2 -- 55
2021-01-03 12:00:00 18.7 18 Nordeste 30 Nordeste 0 1016 -- 57
2021-01-03 11:00:00 19.2 14 Nordeste 30 Nordeste 0 1016.1 -- 49
2021-01-03 10:00:00 17.9 16 Nordeste 26 Nordeste 0 1016.4 -- 54
2021-01-03 09:00:00 16.6 9 Nordeste 21 Nordeste 0 1015.6 -- 61
2021-01-03 08:00:00 15.9 15 Nordeste 22 Norte 0 1014.7 -- 63
2021-01-03 07:00:00 15.9 10 Nordeste 17 Nordeste 0 1014.5 -- 64
2021-01-03 06:00:00 15.7 10 Nordeste 21 Nordeste 0 1014.1 -- 67
2021-01-03 05:00:00 15.3 11 Norte 17 Norte 0 1014 -- 71
2021-01-03 04:00:00 15.2 14 Norte 18 Norte 0 1014.5 -- 66
2021-01-03 03:00:00 15.3 11 Norte 17 Nordeste 0 1014.6 -- 70
2021-01-03 02:00:00 15.9 14 Nordeste 26 Nordeste 0 1014.4 -- 68
2021-01-03 01:00:00 16.6 15 Nordeste 28 Norte 0 1015 -- 68
2021-01-03 00:00:00 16.4 14 Nordeste 22 Nordeste 0 1015.4 -- 63
2021-01-02 23:00:00 15.8 15 Norte 28 Norte 0 1015.9 -- 65
2021-01-02 22:00:00 16.2 12 Nordeste 24 Nordeste 0 1015.4 -- 61
2021-01-02 21:00:00 17.1 13 Nordeste 22 Norte 0 1015.6 -- 56
2021-01-02 20:00:00 17.1 13 Norte 35 Norte 0 1015.3 -- 54
2021-01-02 19:00:00 17.4 20 Nordeste 32 Nordeste 0 1015.2 -- 52
2021-01-02 18:00:00 18 22 Nordeste 39 Norte 0 1015.3 -- 52
2021-01-02 17:00:00 19.9 24 Norte 37 Norte 0 1015.1 -- 48
2021-01-02 16:00:00 19.4 20 Norte 33 Nordeste 0 1015.2 -- 49
2021-01-02 15:00:00 20 22 Norte 35 Norte 0 1015 -- 48
2021-01-02 14:00:00 20 21 Norte 35 Norte 0 1015.3 -- 49
2021-01-02 13:00:00 19.8 21 Norte 35 Norte 0 1016.1 -- 46